EZY3FG EGKK-LFMN
Flight info
| Callsign | EZY3FG |
|---|---|
| Flight time | 1h 41m |
| Altitude | 31000 |
| Route | BOGNA1X BOGNA L612 XAMAB/N0440F330 UL612 VEULE DCT KOTAP DCT KETEX DCT KOTIS DCT KUKOR DCT UTUVA DCT LERGA DCT LIQID DCT LATAM DCT TUNUR DCT NISAR NISAR7R |
| Aircraft | A32N/M-V/N |
Departure
| Time | 2026-04-15 05:48 |
|---|---|
| Airport | London Gatwick Airport (EGKK) |
Arrival
| Time | 2026-04-15 07:29 |
|---|---|
| Airport | Nice-Côte d'Azur Airport (LFMN) |
| Time | Latitude | Longitude | Altitude | Speed | Heading |
|---|---|---|---|---|---|
| 2026-04-15 05:29 | 51.15369 | -0.17596 | 207 ft | 0 kts | 347° |
| 2026-04-15 05:39 | 51.15363 | -0.17593 | 204 ft | 2 kts | 347° |
| 2026-04-15 05:40 | 51.15343 | -0.17587 | 213 ft | 3 kts | 347° |
| 2026-04-15 05:40 | 51.15325 | -0.17580 | 213 ft | 2 kts | 347° |
| 2026-04-15 05:40 | 51.15307 | -0.17576 | 208 ft | 3 kts | 9° |
| 2026-04-15 05:40 | 51.15290 | -0.17586 | 206 ft | 3 kts | 50° |
| 2026-04-15 05:41 | 51.15281 | -0.17613 | 209 ft | 3 kts | 75° |
| 2026-04-15 05:41 | 51.15278 | -0.17630 | 207 ft | 1 kts | 79° |
| 2026-04-15 05:41 | 51.15278 | -0.17633 | 208 ft | 0 kts | 79° |
| 2026-04-15 05:44 | 51.15279 | -0.17619 | 208 ft | 9 kts | 79° |
| 2026-04-15 05:44 | 51.15303 | -0.17408 | 215 ft | 23 kts | 81° |
| 2026-04-15 05:44 | 51.15243 | -0.17194 | 211 ft | 22 kts | 126° |
| 2026-04-15 05:44 | 51.15213 | -0.16984 | 205 ft | 21 kts | 77° |
| 2026-04-15 05:45 | 51.15220 | -0.16928 | 210 ft | 0 kts | 80° |
| 2026-04-15 05:46 | 51.15221 | -0.16917 | 210 ft | 8 kts | 81° |
| 2026-04-15 05:46 | 51.15201 | -0.16816 | 212 ft | 10 kts | 142° |
| 2026-04-15 05:46 | 51.15135 | -0.16806 | 209 ft | 9 kts | 210° |
| 2026-04-15 05:47 | 51.15112 | -0.16877 | 214 ft | 6 kts | 251° |
| 2026-04-15 05:47 | 51.15058 | -0.17287 | 208 ft | 77 kts | 257° |
| 2026-04-15 05:47 | 51.14891 | -0.18472 | 208 ft | 139 kts | 258° |
| 2026-04-15 05:47 | 51.14661 | -0.20168 | 424 ft | 168 kts | 253° |
| 2026-04-15 05:48 | 51.14391 | -0.22050 | 974 ft | 182 kts | 253° |
| 2026-04-15 05:48 | 51.14044 | -0.24074 | 1482 ft | 196 kts | 252° |
| 2026-04-15 05:48 | 51.13652 | -0.26350 | 1719 ft | 231 kts | 252° |
| 2026-04-15 05:48 | 51.13192 | -0.28945 | 2224 ft | 253 kts | 253° |
| 2026-04-15 05:49 | 51.12857 | -0.31653 | 3470 ft | 241 kts | 258° |
| 2026-04-15 05:49 | 51.12596 | -0.34205 | 4885 ft | 226 kts | 257° |
| 2026-04-15 05:49 | 51.12332 | -0.36631 | 6028 ft | 222 kts | 255° |
| 2026-04-15 05:49 | 51.11981 | -0.39049 | 6837 ft | 225 kts | 242° |
| 2026-04-15 05:50 | 51.11060 | -0.40967 | 7764 ft | 218 kts | 216° |
| 2026-04-15 05:50 | 51.09682 | -0.41962 | 8609 ft | 222 kts | 190° |
| 2026-04-15 05:50 | 51.06515 | -0.41679 | 10189 ft | 238 kts | 178° |
| 2026-04-15 05:51 | 51.04806 | -0.41446 | 10517 ft | 261 kts | 178° |
| 2026-04-15 05:51 | 51.02958 | -0.41206 | 11145 ft | 270 kts | 178° |
| 2026-04-15 05:51 | 51.01067 | -0.40961 | 11906 ft | 275 kts | 179° |
| 2026-04-15 05:51 | 50.99135 | -0.40713 | 12659 ft | 281 kts | 179° |
| 2026-04-15 05:52 | 50.97166 | -0.40462 | 13404 ft | 287 kts | 179° |
| 2026-04-15 05:52 | 50.95164 | -0.40208 | 14130 ft | 292 kts | 179° |
| 2026-04-15 05:52 | 50.93164 | -0.39955 | 14845 ft | 294 kts | 179° |
| 2026-04-15 05:52 | 50.91123 | -0.39696 | 15555 ft | 297 kts | 179° |
| 2026-04-15 05:53 | 50.89050 | -0.39434 | 16261 ft | 301 kts | 179° |
| 2026-04-15 05:53 | 50.86947 | -0.39168 | 16951 ft | 304 kts | 179° |
| 2026-04-15 05:53 | 50.84828 | -0.38832 | 17627 ft | 310 kts | 173° |
| 2026-04-15 05:53 | 50.82732 | -0.37867 | 18311 ft | 318 kts | 161° |
| 2026-04-15 05:54 | 50.80769 | -0.36158 | 18912 ft | 326 kts | 150° |
| 2026-04-15 05:54 | 50.78875 | -0.34153 | 19500 ft | 329 kts | 150° |
| 2026-04-15 05:54 | 50.76956 | -0.32144 | 20023 ft | 333 kts | 151° |
| 2026-04-15 05:54 | 50.75016 | -0.30129 | 20528 ft | 335 kts | 151° |
| 2026-04-15 05:55 | 50.73051 | -0.28095 | 21042 ft | 338 kts | 151° |
| 2026-04-15 05:55 | 50.71072 | -0.26052 | 21532 ft | 341 kts | 151° |
| 2026-04-15 05:55 | 50.69068 | -0.23981 | 21949 ft | 348 kts | 151° |
| 2026-04-15 05:55 | 50.67014 | -0.21835 | 22083 ft | 362 kts | 150° |
| 2026-04-15 05:56 | 50.64904 | -0.19619 | 22217 ft | 375 kts | 150° |
| 2026-04-15 05:56 | 50.62666 | -0.17268 | 22325 ft | 389 kts | 150° |
| 2026-04-15 05:56 | 50.60406 | -0.14895 | 22484 ft | 401 kts | 150° |
| 2026-04-15 05:56 | 50.58071 | -0.12448 | 22892 ft | 405 kts | 150° |
| 2026-04-15 05:57 | 50.55718 | -0.09984 | 23390 ft | 408 kts | 150° |
| 2026-04-15 05:57 | 50.53347 | -0.07507 | 23826 ft | 411 kts | 150° |
| 2026-04-15 05:57 | 50.50954 | -0.05012 | 24251 ft | 413 kts | 150° |
| 2026-04-15 05:57 | 50.48552 | -0.02511 | 24652 ft | 415 kts | 150° |
| 2026-04-15 05:58 | 50.46132 | 0.00001 | 25007 ft | 419 kts | 150° |
| 2026-04-15 05:58 | 50.43685 | 0.02537 | 25321 ft | 423 kts | 150° |
| 2026-04-15 05:58 | 50.41224 | 0.05087 | 25707 ft | 425 kts | 150° |
| 2026-04-15 05:58 | 50.38743 | 0.07655 | 26051 ft | 429 kts | 150° |
| 2026-04-15 05:59 | 50.36248 | 0.10234 | 26424 ft | 431 kts | 150° |
| 2026-04-15 05:59 | 50.33739 | 0.12822 | 26787 ft | 433 kts | 150° |
| 2026-04-15 05:59 | 50.31218 | 0.15419 | 27129 ft | 435 kts | 150° |
| 2026-04-15 05:59 | 50.28680 | 0.18028 | 27483 ft | 438 kts | 150° |
| 2026-04-15 06:00 | 50.26127 | 0.20650 | 27837 ft | 439 kts | 150° |
| 2026-04-15 06:00 | 50.23568 | 0.23277 | 28180 ft | 442 kts | 150° |
| 2026-04-15 06:00 | 50.20990 | 0.25917 | 28480 ft | 444 kts | 150° |
| 2026-04-15 06:00 | 50.18406 | 0.28564 | 28757 ft | 447 kts | 150° |
| 2026-04-15 06:01 | 50.15799 | 0.31245 | 29008 ft | 450 kts | 150° |
| 2026-04-15 06:01 | 50.13180 | 0.33938 | 29323 ft | 452 kts | 150° |
| 2026-04-15 06:01 | 50.10550 | 0.36640 | 29613 ft | 454 kts | 150° |
| 2026-04-15 06:01 | 50.07907 | 0.39351 | 29897 ft | 456 kts | 150° |
| 2026-04-15 06:02 | 50.05250 | 0.42070 | 30178 ft | 458 kts | 150° |
| 2026-04-15 06:02 | 50.02583 | 0.44796 | 30427 ft | 460 kts | 150° |
| 2026-04-15 06:02 | 49.99899 | 0.47533 | 30578 ft | 464 kts | 150° |
| 2026-04-15 06:02 | 49.97188 | 0.50293 | 30766 ft | 467 kts | 150° |
| 2026-04-15 06:03 | 49.94464 | 0.53066 | 30960 ft | 470 kts | 150° |
| 2026-04-15 06:03 | 49.91723 | 0.55851 | 31097 ft | 471 kts | 150° |
| 2026-04-15 06:03 | 49.88980 | 0.58637 | 31124 ft | 470 kts | 150° |
| 2026-04-15 06:04 | 49.83531 | 0.64220 | 31130 ft | 470 kts | 148° |
| 2026-04-15 06:04 | 49.78257 | 0.70111 | 31127 ft | 471 kts | 147° |
| 2026-04-15 06:05 | 49.72947 | 0.76062 | 31133 ft | 471 kts | 147° |
| 2026-04-15 06:05 | 49.67609 | 0.81964 | 31131 ft | 471 kts | 148° |
| 2026-04-15 06:06 | 49.62272 | 0.87831 | 31127 ft | 470 kts | 148° |
| 2026-04-15 06:06 | 49.56936 | 0.93676 | 31117 ft | 470 kts | 147° |
| 2026-04-15 06:07 | 49.51574 | 0.99534 | 31141 ft | 475 kts | 147° |
| 2026-04-15 06:07 | 49.46179 | 1.05416 | 31156 ft | 475 kts | 147° |
| 2026-04-15 06:08 | 49.40785 | 1.11281 | 31155 ft | 475 kts | 147° |
| 2026-04-15 06:08 | 49.35389 | 1.17131 | 31156 ft | 475 kts | 147° |
| 2026-04-15 06:09 | 49.29992 | 1.22967 | 31157 ft | 474 kts | 148° |
| 2026-04-15 06:09 | 49.24630 | 1.28747 | 31149 ft | 474 kts | 147° |
| 2026-04-15 06:10 | 49.19193 | 1.34592 | 31140 ft | 475 kts | 147° |
| 2026-04-15 06:10 | 49.13815 | 1.40359 | 31139 ft | 475 kts | 147° |
| 2026-04-15 06:11 | 49.08400 | 1.46150 | 31149 ft | 476 kts | 147° |
| 2026-04-15 06:11 | 49.02952 | 1.51958 | 31171 ft | 479 kts | 147° |
| 2026-04-15 06:12 | 48.97490 | 1.57770 | 31171 ft | 479 kts | 147° |
| 2026-04-15 06:12 | 48.92028 | 1.63565 | 31173 ft | 479 kts | 147° |
| 2026-04-15 06:13 | 48.86562 | 1.69347 | 31175 ft | 478 kts | 147° |
| 2026-04-15 06:13 | 48.81095 | 1.75115 | 31183 ft | 479 kts | 147° |
| 2026-04-15 06:14 | 48.75620 | 1.80873 | 31166 ft | 479 kts | 147° |
| 2026-04-15 06:14 | 48.70132 | 1.86632 | 31170 ft | 480 kts | 147° |
| 2026-04-15 06:15 | 48.64644 | 1.92376 | 31178 ft | 480 kts | 147° |
| 2026-04-15 06:15 | 48.59175 | 1.98083 | 31177 ft | 481 kts | 147° |
| 2026-04-15 06:16 | 48.53657 | 2.03827 | 31180 ft | 482 kts | 147° |
| 2026-04-15 06:16 | 48.48133 | 2.09561 | 31204 ft | 482 kts | 147° |
| 2026-04-15 06:17 | 48.42598 | 2.15291 | 31214 ft | 483 kts | 147° |
| 2026-04-15 06:17 | 48.37051 | 2.21016 | 31201 ft | 484 kts | 147° |
| 2026-04-15 06:18 | 48.31486 | 2.26711 | 31211 ft | 484 kts | 149° |
| 2026-04-15 06:18 | 48.25459 | 2.31073 | 31214 ft | 480 kts | 163° |
| 2026-04-15 06:19 | 48.19026 | 2.33716 | 31202 ft | 479 kts | 167° |
| 2026-04-15 06:19 | 48.12576 | 2.36323 | 31208 ft | 481 kts | 163° |
| 2026-04-15 06:20 | 48.06223 | 2.39498 | 31216 ft | 482 kts | 163° |
| 2026-04-15 06:20 | 47.99904 | 2.42647 | 31220 ft | 482 kts | 163° |
| 2026-04-15 06:21 | 47.93536 | 2.45805 | 31217 ft | 482 kts | 163° |
| 2026-04-15 06:21 | 47.87161 | 2.48958 | 31219 ft | 483 kts | 163° |
| 2026-04-15 06:22 | 47.80782 | 2.52104 | 31220 ft | 483 kts | 163° |
| 2026-04-15 06:22 | 47.74399 | 2.55243 | 31205 ft | 484 kts | 163° |
| 2026-04-15 06:23 | 47.68001 | 2.58383 | 31207 ft | 484 kts | 163° |
| 2026-04-15 06:23 | 47.61607 | 2.61514 | 31212 ft | 485 kts | 163° |
| 2026-04-15 06:24 | 47.55191 | 2.64646 | 31211 ft | 485 kts | 163° |
| 2026-04-15 06:24 | 47.48775 | 2.67770 | 31218 ft | 485 kts | 163° |
| 2026-04-15 06:25 | 47.42355 | 2.70888 | 31222 ft | 486 kts | 163° |
| 2026-04-15 06:25 | 47.35929 | 2.74001 | 31224 ft | 486 kts | 163° |
| 2026-04-15 06:26 | 47.29541 | 2.77087 | 31216 ft | 486 kts | 163° |
| 2026-04-15 06:26 | 47.23108 | 2.80188 | 31218 ft | 486 kts | 163° |
| 2026-04-15 06:27 | 47.16679 | 2.83278 | 31221 ft | 487 kts | 163° |
| 2026-04-15 06:27 | 47.10241 | 2.86364 | 31231 ft | 487 kts | 163° |
| 2026-04-15 06:28 | 47.03797 | 2.89443 | 31234 ft | 487 kts | 163° |
| 2026-04-15 06:28 | 46.97344 | 2.92521 | 31237 ft | 487 kts | 163° |
| 2026-04-15 06:29 | 46.90890 | 2.95592 | 31229 ft | 488 kts | 162° |
| 2026-04-15 06:29 | 46.84429 | 2.98658 | 31230 ft | 488 kts | 162° |
| 2026-04-15 06:30 | 46.77964 | 3.01718 | 31227 ft | 489 kts | 163° |
| 2026-04-15 06:30 | 46.71500 | 3.04769 | 31229 ft | 489 kts | 163° |
| 2026-04-15 06:31 | 46.65022 | 3.07820 | 31232 ft | 489 kts | 163° |
| 2026-04-15 06:31 | 46.58595 | 3.10840 | 31146 ft | 486 kts | 163° |
| 2026-04-15 06:31 | 46.55383 | 3.12346 | 30740 ft | 484 kts | 163° |
| 2026-04-15 06:32 | 46.52193 | 3.13871 | 30195 ft | 481 kts | 161° |
| 2026-04-15 06:32 | 46.49059 | 3.15538 | 29577 ft | 477 kts | 159° |
| 2026-04-15 06:32 | 46.45973 | 3.17248 | 29018 ft | 472 kts | 159° |
| 2026-04-15 06:32 | 46.42918 | 3.18938 | 28454 ft | 467 kts | 159° |
| 2026-04-15 06:33 | 46.39891 | 3.20594 | 27900 ft | 463 kts | 160° |
| 2026-04-15 06:33 | 46.36886 | 3.22220 | 27319 ft | 460 kts | 159° |
| 2026-04-15 06:33 | 46.33897 | 3.23828 | 26786 ft | 455 kts | 159° |
| 2026-04-15 06:33 | 46.30947 | 3.25409 | 26256 ft | 451 kts | 159° |
| 2026-04-15 06:34 | 46.28999 | 3.26451 | 25904 ft | 448 kts | 159° |
| 2026-04-15 06:34 | 46.26091 | 3.28006 | 25401 ft | 444 kts | 159° |
| 2026-04-15 06:34 | 46.23206 | 3.29548 | 24903 ft | 440 kts | 159° |
| 2026-04-15 06:34 | 46.20346 | 3.31073 | 24410 ft | 436 kts | 159° |
| 2026-04-15 06:35 | 46.17512 | 3.32584 | 23919 ft | 432 kts | 159° |
| 2026-04-15 06:35 | 46.14702 | 3.34080 | 23351 ft | 428 kts | 159° |
| 2026-04-15 06:35 | 46.11918 | 3.35561 | 22794 ft | 424 kts | 159° |
| 2026-04-15 06:35 | 46.09156 | 3.37028 | 22192 ft | 422 kts | 159° |
| 2026-04-15 06:36 | 46.06420 | 3.38481 | 21653 ft | 418 kts | 159° |
| 2026-04-15 06:36 | 46.03705 | 3.39920 | 21119 ft | 414 kts | 159° |
| 2026-04-15 06:36 | 46.01013 | 3.41346 | 20618 ft | 410 kts | 159° |
| 2026-04-15 06:36 | 45.98372 | 3.42743 | 20508 ft | 404 kts | 159° |
| 2026-04-15 06:37 | 45.95738 | 3.44136 | 20412 ft | 411 kts | 159° |
| 2026-04-15 06:37 | 45.93021 | 3.45571 | 20310 ft | 410 kts | 159° |
| 2026-04-15 06:37 | 45.90384 | 3.46961 | 20239 ft | 408 kts | 159° |
| 2026-04-15 06:37 | 45.87716 | 3.48367 | 20233 ft | 409 kts | 159° |
| 2026-04-15 06:38 | 45.85017 | 3.49675 | 20235 ft | 410 kts | 162° |
| 2026-04-15 06:38 | 45.82286 | 3.50846 | 20233 ft | 409 kts | 162° |
| 2026-04-15 06:38 | 45.79558 | 3.52021 | 20232 ft | 409 kts | 162° |
| 2026-04-15 06:38 | 45.76829 | 3.53198 | 20232 ft | 409 kts | 162° |
| 2026-04-15 06:39 | 45.74101 | 3.54373 | 20235 ft | 409 kts | 162° |
| 2026-04-15 06:39 | 45.71372 | 3.55548 | 20232 ft | 410 kts | 162° |
| 2026-04-15 06:39 | 45.68638 | 3.56723 | 20232 ft | 410 kts | 162° |
| 2026-04-15 06:39 | 45.65909 | 3.57895 | 20228 ft | 410 kts | 162° |
| 2026-04-15 06:40 | 45.63185 | 3.59063 | 20055 ft | 408 kts | 162° |
| 2026-04-15 06:40 | 45.60473 | 3.60225 | 19675 ft | 405 kts | 162° |
| 2026-04-15 06:40 | 45.57780 | 3.61378 | 19201 ft | 402 kts | 162° |
| 2026-04-15 06:40 | 45.55106 | 3.62521 | 18724 ft | 400 kts | 162° |
| 2026-04-15 06:41 | 45.52451 | 3.63655 | 18193 ft | 396 kts | 162° |
| 2026-04-15 06:41 | 45.49823 | 3.64777 | 17682 ft | 392 kts | 162° |
| 2026-04-15 06:41 | 45.47221 | 3.65887 | 17177 ft | 388 kts | 162° |
| 2026-04-15 06:41 | 45.44647 | 3.66985 | 16685 ft | 384 kts | 162° |
| 2026-04-15 06:42 | 45.42097 | 3.68070 | 16208 ft | 380 kts | 163° |
| 2026-04-15 06:42 | 45.39574 | 3.69143 | 15739 ft | 377 kts | 163° |
| 2026-04-15 06:42 | 45.37090 | 3.70198 | 15519 ft | 367 kts | 163° |
| 2026-04-15 06:42 | 45.34611 | 3.71250 | 15425 ft | 376 kts | 163° |
| 2026-04-15 06:43 | 45.32105 | 3.72314 | 15317 ft | 375 kts | 163° |
| 2026-04-15 06:43 | 45.29642 | 3.73357 | 15249 ft | 372 kts | 163° |
| 2026-04-15 06:43 | 45.27212 | 3.74613 | 15241 ft | 372 kts | 151° |
| 2026-04-15 06:43 | 45.25131 | 3.76772 | 15242 ft | 371 kts | 133° |
| 2026-04-15 06:44 | 45.23585 | 3.79672 | 15248 ft | 369 kts | 121° |
| 2026-04-15 06:44 | 45.22204 | 3.82739 | 15246 ft | 369 kts | 121° |
| 2026-04-15 06:44 | 45.20824 | 3.85801 | 15247 ft | 368 kts | 121° |
| 2026-04-15 06:44 | 45.19447 | 3.88841 | 15245 ft | 367 kts | 121° |
| 2026-04-15 06:45 | 45.18064 | 3.91885 | 15241 ft | 367 kts | 121° |
| 2026-04-15 06:45 | 45.16678 | 3.94927 | 15241 ft | 367 kts | 121° |
| 2026-04-15 06:45 | 45.15288 | 3.97973 | 15240 ft | 367 kts | 121° |
| 2026-04-15 06:45 | 45.13904 | 4.01001 | 15111 ft | 365 kts | 121° |
| 2026-04-15 06:46 | 45.12527 | 4.04011 | 14789 ft | 363 kts | 121° |
| 2026-04-15 06:46 | 45.11159 | 4.06999 | 14360 ft | 360 kts | 121° |
| 2026-04-15 06:46 | 45.09800 | 4.09965 | 13900 ft | 358 kts | 121° |
| 2026-04-15 06:46 | 45.08450 | 4.12907 | 13402 ft | 355 kts | 121° |
| 2026-04-15 06:47 | 45.07110 | 4.15823 | 12864 ft | 353 kts | 121° |
| 2026-04-15 06:47 | 45.05777 | 4.18723 | 12363 ft | 350 kts | 121° |
| 2026-04-15 06:47 | 45.04450 | 4.21603 | 11855 ft | 348 kts | 121° |
| 2026-04-15 06:47 | 45.03062 | 4.24389 | 11410 ft | 346 kts | 127° |
| 2026-04-15 06:48 | 45.01455 | 4.26904 | 10969 ft | 343 kts | 131° |
| 2026-04-15 06:48 | 44.99861 | 4.29337 | 10620 ft | 337 kts | 131° |
| 2026-04-15 06:48 | 44.98304 | 4.31726 | 10507 ft | 323 kts | 131° |
| 2026-04-15 06:48 | 44.96815 | 4.34013 | 10408 ft | 310 kts | 131° |
| 2026-04-15 06:49 | 44.95387 | 4.36212 | 10302 ft | 297 kts | 131° |
| 2026-04-15 06:49 | 44.93988 | 4.38364 | 10213 ft | 294 kts | 131° |
| 2026-04-15 06:49 | 44.92620 | 4.40474 | 10211 ft | 296 kts | 131° |
| 2026-04-15 06:50 | 44.89850 | 4.44720 | 10186 ft | 293 kts | 131° |
| 2026-04-15 06:50 | 44.88466 | 4.46841 | 10189 ft | 294 kts | 131° |
| 2026-04-15 06:50 | 44.87080 | 4.48962 | 10190 ft | 294 kts | 131° |
| 2026-04-15 06:50 | 44.85688 | 4.51088 | 10191 ft | 295 kts | 131° |
| 2026-04-15 06:51 | 44.84300 | 4.53211 | 10189 ft | 294 kts | 131° |
| 2026-04-15 06:51 | 44.82915 | 4.55326 | 10190 ft | 293 kts | 131° |
| 2026-04-15 06:51 | 44.81531 | 4.57437 | 10185 ft | 294 kts | 131° |
| 2026-04-15 06:51 | 44.80142 | 4.59559 | 10180 ft | 294 kts | 132° |
| 2026-04-15 06:52 | 44.78756 | 4.61670 | 10182 ft | 294 kts | 132° |
| 2026-04-15 06:52 | 44.77365 | 4.63785 | 10187 ft | 294 kts | 132° |
| 2026-04-15 06:52 | 44.75978 | 4.65894 | 10180 ft | 294 kts | 132° |
| 2026-04-15 06:52 | 44.74585 | 4.68011 | 10179 ft | 294 kts | 132° |
| 2026-04-15 06:53 | 44.73197 | 4.70117 | 10179 ft | 294 kts | 132° |
| 2026-04-15 06:53 | 44.71801 | 4.72234 | 10182 ft | 296 kts | 131° |
| 2026-04-15 06:53 | 44.70404 | 4.74353 | 10177 ft | 295 kts | 132° |
| 2026-04-15 06:53 | 44.69017 | 4.76456 | 10177 ft | 293 kts | 132° |
| 2026-04-15 06:54 | 44.67626 | 4.78561 | 10176 ft | 295 kts | 132° |
| 2026-04-15 06:54 | 44.66230 | 4.80672 | 10174 ft | 294 kts | 132° |
| 2026-04-15 06:54 | 44.64843 | 4.82769 | 10173 ft | 293 kts | 132° |
| 2026-04-15 06:54 | 44.63455 | 4.84871 | 10179 ft | 294 kts | 131° |
| 2026-04-15 06:55 | 44.62094 | 4.87018 | 10171 ft | 295 kts | 130° |
| 2026-04-15 06:55 | 44.60754 | 4.89185 | 10170 ft | 293 kts | 130° |
| 2026-04-15 06:55 | 44.59413 | 4.91354 | 10173 ft | 295 kts | 130° |
| 2026-04-15 06:55 | 44.58067 | 4.93521 | 10159 ft | 295 kts | 130° |
| 2026-04-15 06:56 | 44.56716 | 4.95686 | 10160 ft | 294 kts | 130° |
| 2026-04-15 06:56 | 44.55365 | 4.97842 | 10157 ft | 296 kts | 130° |
| 2026-04-15 06:56 | 44.54004 | 5.00010 | 10157 ft | 296 kts | 130° |
| 2026-04-15 06:56 | 44.52650 | 5.02167 | 10158 ft | 294 kts | 130° |
| 2026-04-15 06:57 | 44.51299 | 5.04317 | 10145 ft | 295 kts | 130° |
| 2026-04-15 06:57 | 44.49871 | 5.06398 | 10138 ft | 297 kts | 139° |
| 2026-04-15 06:57 | 44.48172 | 5.08023 | 10142 ft | 296 kts | 152° |
| 2026-04-15 06:57 | 44.46308 | 5.09224 | 10129 ft | 294 kts | 155° |
| 2026-04-15 06:58 | 44.44438 | 5.10405 | 9840 ft | 295 kts | 155° |
| 2026-04-15 06:58 | 44.42579 | 5.11596 | 9511 ft | 293 kts | 155° |
| 2026-04-15 06:58 | 44.40737 | 5.12784 | 9155 ft | 290 kts | 155° |
| 2026-04-15 06:58 | 44.38914 | 5.13960 | 8793 ft | 287 kts | 155° |
| 2026-04-15 06:59 | 44.37109 | 5.15121 | 8448 ft | 284 kts | 155° |
| 2026-04-15 06:59 | 44.35336 | 5.16260 | 8281 ft | 278 kts | 155° |
| 2026-04-15 06:59 | 44.33553 | 5.17405 | 8187 ft | 285 kts | 155° |
| 2026-04-15 06:59 | 44.31762 | 5.18553 | 8130 ft | 281 kts | 156° |
| 2026-04-15 07:00 | 44.29981 | 5.19693 | 8134 ft | 282 kts | 156° |
| 2026-04-15 07:00 | 44.28196 | 5.20834 | 8135 ft | 282 kts | 156° |
| 2026-04-15 07:00 | 44.26415 | 5.21972 | 8137 ft | 282 kts | 156° |
| 2026-04-15 07:00 | 44.24628 | 5.23116 | 8131 ft | 282 kts | 156° |
| 2026-04-15 07:01 | 44.22843 | 5.24258 | 8131 ft | 282 kts | 156° |
| 2026-04-15 07:01 | 44.21060 | 5.25400 | 8129 ft | 282 kts | 156° |
| 2026-04-15 07:01 | 44.19277 | 5.26538 | 8127 ft | 282 kts | 156° |
| 2026-04-15 07:01 | 44.17493 | 5.27674 | 8126 ft | 282 kts | 156° |
| 2026-04-15 07:02 | 44.15707 | 5.28810 | 8125 ft | 282 kts | 156° |
| 2026-04-15 07:02 | 44.13922 | 5.29945 | 8123 ft | 282 kts | 156° |
| 2026-04-15 07:02 | 44.12138 | 5.31079 | 8124 ft | 282 kts | 156° |
| 2026-04-15 07:02 | 44.10353 | 5.32212 | 8119 ft | 282 kts | 156° |
| 2026-04-15 07:03 | 44.08568 | 5.33346 | 8124 ft | 282 kts | 156° |
| 2026-04-15 07:03 | 44.06762 | 5.34490 | 8119 ft | 288 kts | 156° |
| 2026-04-15 07:03 | 44.04944 | 5.35641 | 8115 ft | 286 kts | 156° |
| 2026-04-15 07:03 | 44.03139 | 5.36786 | 8120 ft | 285 kts | 156° |
| 2026-04-15 07:04 | 44.01329 | 5.37933 | 8114 ft | 286 kts | 156° |
| 2026-04-15 07:04 | 43.99518 | 5.39079 | 8113 ft | 286 kts | 156° |
| 2026-04-15 07:04 | 43.97799 | 5.40457 | 8113 ft | 287 kts | 142° |
| 2026-04-15 07:04 | 43.96421 | 5.42396 | 8114 ft | 286 kts | 127° |
| 2026-04-15 07:05 | 43.95232 | 5.44652 | 8116 ft | 286 kts | 126° |
| 2026-04-15 07:05 | 43.94044 | 5.46880 | 8115 ft | 288 kts | 127° |
| 2026-04-15 07:05 | 43.92849 | 5.49103 | 8117 ft | 286 kts | 127° |
| 2026-04-15 07:05 | 43.91660 | 5.51306 | 8113 ft | 286 kts | 127° |
| 2026-04-15 07:06 | 43.90466 | 5.53516 | 8113 ft | 286 kts | 127° |
| 2026-04-15 07:06 | 43.89275 | 5.55716 | 8115 ft | 285 kts | 127° |
| 2026-04-15 07:06 | 43.88084 | 5.57917 | 8117 ft | 286 kts | 127° |
| 2026-04-15 07:06 | 43.86907 | 5.60091 | 8110 ft | 285 kts | 127° |
| 2026-04-15 07:07 | 43.85714 | 5.62292 | 8114 ft | 286 kts | 127° |
| 2026-04-15 07:07 | 43.84519 | 5.64497 | 8112 ft | 286 kts | 127° |
| 2026-04-15 07:07 | 43.83325 | 5.66696 | 8110 ft | 285 kts | 127° |
| 2026-04-15 07:07 | 43.82134 | 5.68889 | 8109 ft | 286 kts | 127° |
| 2026-04-15 07:08 | 43.80940 | 5.71086 | 8113 ft | 285 kts | 127° |
| 2026-04-15 07:08 | 43.79743 | 5.73285 | 8111 ft | 286 kts | 127° |
| 2026-04-15 07:08 | 43.78545 | 5.75487 | 8108 ft | 286 kts | 127° |
| 2026-04-15 07:08 | 43.77347 | 5.77686 | 8111 ft | 286 kts | 127° |
| 2026-04-15 07:09 | 43.76148 | 5.79884 | 8108 ft | 286 kts | 127° |
| 2026-04-15 07:09 | 43.74948 | 5.82083 | 8104 ft | 286 kts | 127° |
| 2026-04-15 07:09 | 43.73751 | 5.84276 | 8107 ft | 286 kts | 127° |
| 2026-04-15 07:09 | 43.72549 | 5.86475 | 8102 ft | 286 kts | 127° |
| 2026-04-15 07:10 | 43.71351 | 5.88667 | 8105 ft | 286 kts | 127° |
| 2026-04-15 07:10 | 43.70150 | 5.90861 | 8106 ft | 286 kts | 127° |
| 2026-04-15 07:10 | 43.68948 | 5.93058 | 8103 ft | 286 kts | 127° |
| 2026-04-15 07:10 | 43.67750 | 5.95246 | 8106 ft | 286 kts | 127° |
| 2026-04-15 07:11 | 43.66544 | 5.97443 | 8096 ft | 287 kts | 127° |
| 2026-04-15 07:11 | 43.65340 | 5.99636 | 8095 ft | 286 kts | 127° |
| 2026-04-15 07:11 | 43.64138 | 6.01823 | 8099 ft | 287 kts | 127° |
| 2026-04-15 07:11 | 43.62934 | 6.04012 | 8099 ft | 286 kts | 127° |
| 2026-04-15 07:12 | 43.61732 | 6.06199 | 8099 ft | 286 kts | 127° |
| 2026-04-15 07:12 | 43.60526 | 6.08389 | 8098 ft | 288 kts | 127° |
| 2026-04-15 07:12 | 43.59456 | 6.10702 | 8096 ft | 284 kts | 115° |
| 2026-04-15 07:12 | 43.58712 | 6.13211 | 8101 ft | 284 kts | 109° |
| 2026-04-15 07:13 | 43.58025 | 6.15765 | 8093 ft | 284 kts | 109° |
| 2026-04-15 07:13 | 43.57330 | 6.18314 | 8097 ft | 284 kts | 109° |
| 2026-04-15 07:13 | 43.56629 | 6.20861 | 8096 ft | 284 kts | 109° |
| 2026-04-15 07:13 | 43.55928 | 6.23406 | 8099 ft | 284 kts | 109° |
| 2026-04-15 07:14 | 43.55226 | 6.25950 | 8097 ft | 284 kts | 109° |
| 2026-04-15 07:14 | 43.54525 | 6.28490 | 8097 ft | 283 kts | 109° |
| 2026-04-15 07:14 | 43.53823 | 6.31032 | 8098 ft | 284 kts | 109° |
| 2026-04-15 07:14 | 43.53121 | 6.33572 | 8098 ft | 284 kts | 110° |
| 2026-04-15 07:15 | 43.52417 | 6.36115 | 8099 ft | 284 kts | 109° |
| 2026-04-15 07:15 | 43.51715 | 6.38656 | 8101 ft | 284 kts | 109° |
| 2026-04-15 07:15 | 43.51010 | 6.41197 | 8103 ft | 283 kts | 110° |
| 2026-04-15 07:15 | 43.50105 | 6.43610 | 8102 ft | 286 kts | 123° |
| 2026-04-15 07:16 | 43.48841 | 6.45716 | 8099 ft | 286 kts | 133° |
| 2026-04-15 07:16 | 43.47454 | 6.47673 | 8105 ft | 285 kts | 132° |
| 2026-04-15 07:16 | 43.46082 | 6.49638 | 8099 ft | 285 kts | 132° |
| 2026-04-15 07:16 | 43.44712 | 6.51616 | 8099 ft | 285 kts | 132° |
| 2026-04-15 07:17 | 43.43346 | 6.53582 | 8101 ft | 283 kts | 131° |
| 2026-04-15 07:17 | 43.41986 | 6.55540 | 8097 ft | 283 kts | 131° |
| 2026-04-15 07:17 | 43.40627 | 6.57497 | 8077 ft | 284 kts | 131° |
| 2026-04-15 07:17 | 43.39490 | 6.59662 | 8088 ft | 277 kts | 109° |
| 2026-04-15 07:18 | 43.39154 | 6.62229 | 8077 ft | 271 kts | 83° |
| 2026-04-15 07:18 | 43.39643 | 6.64614 | 8080 ft | 252 kts | 64° |
| 2026-04-15 07:18 | 43.40321 | 6.66754 | 8078 ft | 237 kts | 65° |
| 2026-04-15 07:18 | 43.40976 | 6.68844 | 8079 ft | 239 kts | 65° |
| 2026-04-15 07:19 | 43.41621 | 6.70922 | 8078 ft | 239 kts | 65° |
| 2026-04-15 07:19 | 43.42264 | 6.73011 | 8077 ft | 231 kts | 65° |
| 2026-04-15 07:19 | 43.42864 | 6.74977 | 8062 ft | 214 kts | 65° |
| 2026-04-15 07:19 | 43.43427 | 6.76822 | 8075 ft | 213 kts | 65° |
| 2026-04-15 07:20 | 43.44017 | 6.78747 | 8079 ft | 218 kts | 65° |
| 2026-04-15 07:20 | 43.44578 | 6.80592 | 8075 ft | 199 kts | 65° |
| 2026-04-15 07:20 | 43.45086 | 6.82266 | 8069 ft | 180 kts | 65° |
| 2026-04-15 07:20 | 43.45403 | 6.83308 | 8067 ft | 169 kts | 65° |
| 2026-04-15 07:21 | 43.45842 | 6.84750 | 8084 ft | 162 kts | 65° |
| 2026-04-15 07:21 | 43.46275 | 6.86166 | 8090 ft | 156 kts | 65° |
| 2026-04-15 07:21 | 43.46677 | 6.87484 | 8079 ft | 146 kts | 65° |
| 2026-04-15 07:21 | 43.47078 | 6.88794 | 8080 ft | 150 kts | 65° |
| 2026-04-15 07:22 | 43.47480 | 6.90111 | 8078 ft | 149 kts | 65° |
| 2026-04-15 07:22 | 43.47885 | 6.91421 | 8075 ft | 149 kts | 65° |
| 2026-04-15 07:22 | 43.48287 | 6.92741 | 8082 ft | 150 kts | 65° |
| 2026-04-15 07:22 | 43.48686 | 6.94058 | 8079 ft | 148 kts | 65° |
| 2026-04-15 07:23 | 43.49083 | 6.95373 | 8070 ft | 148 kts | 65° |
| 2026-04-15 07:23 | 43.49480 | 6.96688 | 8074 ft | 149 kts | 65° |
| 2026-04-15 07:23 | 43.49879 | 6.98006 | 8074 ft | 149 kts | 65° |
| 2026-04-15 07:23 | 43.50277 | 6.99316 | 8075 ft | 148 kts | 64° |
| 2026-04-15 07:24 | 43.50766 | 7.00554 | 8077 ft | 147 kts | 53° |
| 2026-04-15 07:24 | 43.51409 | 7.01641 | 8074 ft | 146 kts | 46° |
| 2026-04-15 07:24 | 43.52117 | 7.02634 | 8017 ft | 143 kts | 44° |
| 2026-04-15 07:24 | 43.52825 | 7.03591 | 7739 ft | 143 kts | 44° |
| 2026-04-15 07:25 | 43.53533 | 7.04554 | 7342 ft | 144 kts | 44° |
| 2026-04-15 07:25 | 43.54246 | 7.05524 | 6940 ft | 144 kts | 44° |
| 2026-04-15 07:25 | 43.54960 | 7.06495 | 6545 ft | 144 kts | 44° |
| 2026-04-15 07:25 | 43.55672 | 7.07464 | 6128 ft | 144 kts | 44° |
| 2026-04-15 07:26 | 43.56382 | 7.08429 | 5743 ft | 143 kts | 44° |
| 2026-04-15 07:26 | 43.57097 | 7.09403 | 5283 ft | 148 kts | 44° |
| 2026-04-15 07:26 | 43.57850 | 7.10428 | 4745 ft | 156 kts | 44° |
| 2026-04-15 07:26 | 43.58637 | 7.11500 | 4188 ft | 162 kts | 44° |
| 2026-04-15 07:27 | 43.59446 | 7.12601 | 3638 ft | 165 kts | 43° |
| 2026-04-15 07:27 | 43.60263 | 7.13715 | 3078 ft | 166 kts | 43° |
| 2026-04-15 07:27 | 43.61088 | 7.14839 | 2524 ft | 167 kts | 43° |
| 2026-04-15 07:27 | 43.61918 | 7.15970 | 1977 ft | 168 kts | 44° |
| 2026-04-15 07:28 | 43.62748 | 7.17103 | 1425 ft | 167 kts | 43° |
| 2026-04-15 07:28 | 43.63559 | 7.18211 | 1043 ft | 156 kts | 42° |
| 2026-04-15 07:28 | 43.64286 | 7.19252 | 740 ft | 145 kts | 44° |
| 2026-04-15 07:28 | 43.65022 | 7.20214 | 304 ft | 146 kts | 41° |
| 2026-04-15 07:29 | 43.65735 | 7.21190 | 34 ft | 138 kts | 41° |
| 2026-04-15 07:29 | 43.66311 | 7.21949 | 26 ft | 76 kts | 44° |
| 2026-04-15 07:29 | 43.66569 | 7.22307 | 21 ft | 37 kts | 46° |
| 2026-04-15 07:29 | 43.66712 | 7.22476 | 20 ft | 9 kts | 0° |
| 2026-04-15 07:30 | 43.66742 | 7.22473 | 20 ft | 12 kts | 352° |
| 2026-04-15 07:30 | 43.66810 | 7.22414 | 21 ft | 13 kts | 292° |
| 2026-04-15 07:30 | 43.66791 | 7.22302 | 21 ft | 13 kts | 224° |
| 2026-04-15 07:30 | 43.66717 | 7.22201 | 21 ft | 19 kts | 225° |
| 2026-04-15 07:31 | 43.66595 | 7.22027 | 21 ft | 28 kts | 230° |
| 2026-04-15 07:31 | 43.66455 | 7.21834 | 21 ft | 29 kts | 226° |
| 2026-04-15 07:31 | 43.66310 | 7.21633 | 21 ft | 30 kts | 225° |
| 2026-04-15 07:31 | 43.66161 | 7.21425 | 21 ft | 31 kts | 225° |
| 2026-04-15 07:32 | 43.66004 | 7.21219 | 21 ft | 31 kts | 224° |
| 2026-04-15 07:32 | 43.65849 | 7.21001 | 21 ft | 32 kts | 225° |
| 2026-04-15 07:32 | 43.65829 | 7.20862 | 21 ft | 15 kts | 348° |
| 2026-04-15 07:32 | 43.65858 | 7.20768 | 21 ft | 13 kts | 234° |
| 2026-04-15 07:33 | 43.65826 | 7.20678 | 21 ft | 6 kts | 309° |
| 2026-04-15 07:33 | 43.65863 | 7.20627 | 21 ft | 9 kts | 314° |
| 2026-04-15 07:33 | 43.65873 | 7.20612 | 21 ft | 0 kts | 315° |